Station: Coonabarabran  

  Atmospheric Gas Attenuation - ITU Rec 676-11   ----------------- dB/100km -----------------
Date Time Temp RH % AH g/m3 Dew Point Wind Direction Speed kph Gust kph Barometer mB Rainfall Since 9am 24GHz 47GHz 76GHz 122GHz 134GHz 241GHz
08/05 09:00 10.1 59 5.58 2.6 6 1013.1 0 13.3 22.1 29.7 77.4 63.6 216.0
07/05 09:00 10.5 78 7.57 6.8 9 1013.1 0 17.5 25.2 37.2 97.6 88.7 304.2
06/05 09:00 9.7 78 7.19 6.1 4 1013.1 0 16.8 24.8 36.1 94.5 84.6 289.5
05/05 09:00 14.8 68 8.61 8.9 4 1013.1 6 19.6 25.6 39.3 103.2 97.3 334.6
04/05 09:00 18.2 70 10.88 12.6 9 1013.1 0 24.2 28.3 46.6 122.8 122.5 423.4
03/05 09:00 21.8 44 8.44 9.2 9 1013.1 0 18.9 23.5 35.4 92.9 87.0 299.5
02/05 09:00 18.8 65 10.47 12.1 6 1013.1 0 23.3 27.4 44.6 117.4 116.1 401.2
01/05 09:00 17.4 57 8.45 8.9 4 1013.1 0 19.1 24.6 37.5 98.3 92.1 316.8
30/04 09:00 18.5 60 9.49 10.7 6 1013.1 0 21.2 25.9 40.9 107.5 103.8 358.2
29/04 09:00 20.4 50 8.84 9.6 4 1013.1 0 19.8 24.4 37.5 98.5 93.4 321.7
28/04 09:00 16.8 54 7.72 7.5 6 1013.1 0 17.6 23.7 35.0 91.6 83.7 287.4
27/04 09:00 15.4 57 7.49 6.9 2 1013.1 0 17.2 23.7 34.7 90.9 82.3 282.4
26/04 09:00 19.8 44 7.51 7.2 9 1013.1 0 17.0 22.6 33.0 86.3 78.1 268.2
25/04 09:00 17.4 65 9.63 10.7 4 1013.1 0 21.6 26.5 42.0 110.5 107.1 369.6
24/04 09:00 16.8 58 8.29 8.6 4 1013.1 0 18.8 24.6 37.1 97.4 90.8 312.2
23/04 09:00 16.5 58 8.14 8.3 4 1013.1 0 18.5 24.4 36.7 96.2 89.2 306.7
22/04 09:00 16.6 60 8.48 8.8 6 1013.1 0 19.2 24.9 38.0 99.6 93.4 321.3
21/04 09:00 16 60 8.17 8.3 6 1013.1 0 18.6 24.6 37.0 97.1 90.2 310.0
20/04 09:00 18.8 37 5.96 4.1 11 1013.1 0 13.8 20.7 28.0 72.9 61.3 208.9
19/04 09:00 20.7 27 4.86 1 4 1013.1 0 11.4 18.8 23.8 61.8 48.1 162.9
18/04 09:00 13.8 44 5.24 2 7 1013.1 0 12.4 20.8 27.2 70.7 56.7 192.4
17/04 09:00 21.1 44 8.11 8.5 0 1013.1 0 18.2 23.2 34.6 90.6 83.9 288.4
16/04 09:00 19.5 48 8.06 8.2 0 1013.1 0 18.2 23.5 35.1 91.9 85.0 292.1
15/04 09:00 18.5 46 7.28 6.8 6 1013.1 0 16.6 22.6 32.7 85.5 76.7 263.0
14/04 09:00 15.5 56 7.4 6.8 9 1013.1 0 17.0 23.5 34.4 89.9 81.1 278.2
13/04 09:00 13.5 57 6.67 5.2 6 1013.1 0 15.5 23.0 32.4 84.8 74.1 253.2
12/04 09:00 14.5 39 4.85 0.9 11 1013.1 0 11.6 20.1 25.6 66.5 51.8 175.2
11/04 09:00 19.2 54 8.9 9.7 11 1013.1 0 20.0 24.8 38.3 100.6 95.5 329.1
10/04 09:00 24.7 45 10.19 12 7 1013.1 0 22.4 25.3 40.4 106.3 104.3 360.6
09/04 09:00 24 40 8.7 9.7 0 1013.1 0 19.3 23.3 35.4 92.9 87.6 302.0
08/04 09:00 22 47 9.12 10.4 4 1013.1 0 20.3 24.4 37.8 99.3 94.9 327.1
07/04 09:00 21.8 52 9.98 11.5 4 1013.1 0 22.1 25.8 41.1 108.1 105.6 364.8
06/04 09:00 16.5 72 10.11 11.5 0 1013.1 0 22.7 27.5 44.5 117.0 114.8 396.2
05/04 09:00 21.7 53 10.11 11.8 11 1013.1 22.4 26.0 41.7 109.5 107.4 370.9
04/04 09:00 17.2 78 11.42 13.4 0 1013.1 0 25.4 29.5 49.5 130.4 131.6 454.9
03/04 09:00 14.8 68 8.61 8.9 0 1013.1 0 19.6 25.6 39.3 103.2 97.3 334.6
02/04 09:00 16 74 10.08 11.5 0 1013.1 0 22.6 27.6 44.6 117.4 115.1 397.3
01/04 09:00 13 78 8.85 9.2 0 1013.1 0 20.2 26.5 41.2 108.2 102.8 353.7
31/03 09:00 14.1 72 8.74 9.1 0 1013.1 0 19.9 26.0 40.2 105.5 99.9 343.6
30/03 09:00 10.5 82 7.95 7.5 0 1013.1 0 18.4 25.8 38.8 101.7 93.8 322.0
29/03 09:00 12.1 69 7.4 6.6 2 1013.1 0 17.1 24.4 35.8 93.9 84.7 290.3
28/03 09:00 1013.1
27/03 09:00 8.7 70 6.06 3.5 11 1013.1 3 14.4 23.2 32.0 83.7 70.8 241.2
26/03 09:00 18.5 67 10.6 12.4 0 1013.1 0 23.6 27.7 45.3 119.3 118.3 408.7
25/03 09:00 14 84 10.13 11.3 0 1013.1 0 22.9 28.4 46.0 121.0 118.9 410.1
24/03 09:00 18.3 74 11.57 13.7 0 1013.1 0 25.7 29.4 49.4 130.2 131.7 455.6
23/03 09:00 15 84 10.77 12.3 0 1013.1 0 24.2 29.1 48.1 126.6 126.2 435.8
22/03 09:00 22.7 55 11.11 13.2 11 1013.1 1 24.4 27.2 45.0 118.3 118.5 410.1
21/03 09:00 18.4 83 13.05 15.4 0 1013.1 0 28.8 31.9 55.7 147.0 152.4 527.6
20/03 09:00 18.6 88 14 16.6 0 1013.1 1 30.9 33.5 59.8 157.8 165.8 574.5
19/03 09:00 19.5 90 15.1 17.9 0 1013.1 4 33.1 35.2 64.1 169.2 180.1 624.5
18/03 09:00 21 69 12.64 15.2 0 1013.1 0 27.8 30.3 52.2 137.5 141.6 490.4
17/03 09:00 21.5 66 12.44 14.9 7 1013.1 0 27.3 29.8 51.0 134.4 138.0 477.8
16/03 09:00 19.5 64 10.74 12.5 11 1013.1 0 23.8 27.6 45.3 119.2 118.6 410.0
15/03 09:00 18.9 62 10.04 11.6 4 1013.1 0 22.4 26.7 42.9 112.7 110.4 381.1
14/03 09:00 17 57 8.25 8.4 9 1013.1 0 18.7 24.4 36.9 96.7 90.0 309.6
13/03 09:00 19.4 75 12.51 14.9 4 1013.1 0 27.6 30.6 52.7 138.9 142.8 494.3
12/03 09:00 24 43 9.35 10.9 4 1013.1 0 20.7 24.2 37.7 99.1 95.2 328.6
11/03 09:00 19 81 13.2 15.7 0 1013.1 0 29.1 32.0 55.9 147.6 153.3 531.0
10/03 09:00 21.4 71 13.31 15.9 2 1013.1 0 29.2 31.3 54.7 144.3 150.1 520.1
09/03 09:00 20 79 13.65 16.3 6 1013.1 0 30.0 32.4 57.2 150.9 157.7 546.5
08/03 09:00 22.8 76 15.44 18.3 4 1013.1 10 33.6 34.4 62.9 166.1 177.3 615.2
07/03 09:00 20 98 16.93 19.7 2 1013.1 12 37.0 38.4 72.2 191.0 207.0 718.1
06/03 09:00 25.4 55 12.95 15.7 7 1013.1 0 28.1 29.3 50.5 133.3 137.8 477.7
04/03 09:00 21 84 15.39 18.3 2 1013.1 2 33.6 35.1 64.1 169.4 180.8 627.3
03/03 09:00 23 62 12.74 15.5 11 1013.1 0 27.9 29.8 51.3 135.1 139.3 482.7
02/03 09:00 21.7 64 12.21 14.7 11 1013.1 0 26.8 29.3 49.9 131.6 134.5 465.8
01/03 09:00 24 53 11.53 14 4 1013.1 0 25.2 27.5 45.8 120.7 121.9 422.0
28/02 09:00 22.6 69 13.86 16.8 9 1013.1 0 30.3 31.8 56.2 148.3 155.3 538.5
27/02 09:00 22.7 56 11.31 13.6 7 1013.1 0 24.9 27.5 45.7 120.4 121.1 419.0
26/02 09:00 25.5 52 12.31 14.9 11 1013.1 0.6 26.8 28.2 48.0 126.4 129.4 448.4
25/02 09:00 23 60 12.33 14.8 9 1013.1 0 27.0 29.1 49.6 130.7 133.9 463.7
24/02 09:00 25.4 60 14.13 17.2 6 1013.1 0 30.6 31.2 55.3 146.0 153.4 532.2
23/02 09:00 22.5 78 15.58 18.6 9 1013.1 0 33.9 34.8 63.7 168.4 180.1 624.7
22/02 09:00 27.9 31 8.38 9.6 11 1013.1 0 18.5 21.9 32.7 85.8 80.0 275.7
21/02 09:00 23 82 16.85 19.8 4 1013.1 7 36.6 36.9 69.1 182.6 197.6 686.0
20/02 09:00 25.6 65 15.47 18.5 0 1013.1 0 33.4 33.4 60.8 160.5 171.3 594.7
19/02 09:00 25.5 63 14.91 18 2 1013.1 0 32.3 32.5 58.5 154.4 163.8 568.4
18/02 09:00 22.5 59 11.78 14.2 7 1013.1 0 25.9 28.4 47.7 125.7 127.5 441.4
17/02 09:00 20.5 65 11.56 13.7 7 1013.1 0 25.5 28.6 48.0 126.5 127.9 442.5
16/02 09:00 19.5 65 10.91 12.9 4 1013.1 0 24.2 27.9 46.0 121.1 120.9 417.8
15/02 09:00 22.3 56 11.06 13.3 4 1013.1 0.1 24.4 27.3 45.0 118.4 118.5 410.0
14/02 09:00 19.8 65 11.1 13.1 4 1013.1 0 24.6 28.1 46.6 122.6 122.9 425.0
13/02 09:00 20.2 66 11.54 13.6 4 1013.1 0 25.5 28.7 48.1 126.8 128.1 443.3
12/02 09:00 26 65 15.82 19.1 7 1013.1 0 34.1 33.8 61.9 163.7 175.3 608.6
11/02 09:00 23 71 14.59 17.5 0 1013.1 0 31.8 32.9 59.0 155.8 164.7 571.3
10/02 09:00 19.9 92 15.81 18.5 0 1013.1 8 34.6 36.3 67.0 177.1 189.9 658.6
09/02 09:00 22 70 13.58 16.4 6 1013.1 0 29.7 31.5 55.4 146.2 152.6 529.1
07/02 09:00 24.5 68 15.22 18.3 0 1013.1 0.8 33.0 33.4 60.6 159.9 170.3 590.9
06/02 09:00 28.4 43 11.95 14.8 6 1013.1 0 25.9 26.8 44.9 118.4 120.3 417.0
05/02 09:00 24 64 13.92 16.8 11 1013.1 0 30.3 31.4 55.4 146.3 153.3 531.8
04/02 09:00 19 67 10.92 12.9 0 1013.1 0 24.3 28.1 46.3 121.9 121.8 421.0
03/02 09:00 19.5 52 8.73 9.4 11 1013.1 0 19.6 24.5 37.5 98.5 93.1 320.6
02/02 09:00 21 71 13.01 15.6 4 1013.1 0 28.6 30.9 53.7 141.7 146.7 508.2
01/02 09:00 29 52 14.94 18.3 4 1013.1 0 32.0 31.3 56.0 148.0 156.9 544.9
31/01 09:00 26.7 52 13.16 16 4 1013.1 0 28.5 29.2 50.5 133.3 138.2 479.3
30/01 09:00 25.1 67 15.51 18.6 2 1013.1 0 33.6 33.7 61.3 162.0 173.0 600.5
29/01 09:00 25.5 72 17.05 20.2 0 1013.1 0 36.8 36.2 67.7 179.1 194.1 674.0
28/01 09:00 25.5 58 13.73 16.8 0 1013.1 0 29.8 30.5 53.6 141.5 147.9 512.8
27/01 09:00 24 60 13.05 15.9 4 1013.1 0 28.4 29.9 51.9 136.8 141.6 490.9

Last Refresh: 08-May-2026 12:09:33

Bureau of Meteorology